Terminal Aerodrome Forecast
Issued by NWS Wakefield, VA

Home | Current Version | Previous Version | Text Only | Print | Product List | Glossary On
Versions: 1 2 3 4 5 6 7 8 9 10 11 12 13 14 15 16 17 18 19
000
FTUS41 KAKQ 051332 AAA
TAFORF
TAF AMD
KORF 051332Z 0514/0612 06014G23KT P6SM SCT025 OVC070
      TEMPO 0514/0516 BKN025
     FM060200 06008KT P6SM BKN025 OVC040=

USA.gov is the U.S. government's official web portal to all federal, state and local government web resources and services.